createdAt,value
2018-03-21T00:00:39.139Z,91.30
2018-03-21T00:03:07.263Z,91.20
2018-03-21T00:05:35.372Z,91.20
2018-03-21T00:08:03.605Z,91.30
2018-03-21T00:10:31.716Z,91.40
2018-03-21T00:12:59.978Z,91.50
2018-03-21T00:15:28.177Z,91.50
2018-03-21T00:17:56.433Z,91.50
2018-03-21T00:20:24.671Z,91.60
2018-03-21T00:22:52.840Z,91.60
2018-03-21T00:25:21.036Z,91.80
2018-03-21T00:27:49.194Z,91.40
2018-03-21T00:30:18.137Z,91.50
2018-03-21T00:32:46.307Z,91.50
2018-03-21T00:35:14.455Z,91.50
2018-03-21T00:37:49.086Z,91.80
2018-03-21T00:40:17.198Z,91.50
2018-03-21T00:42:45.453Z,91.50
2018-03-21T00:45:13.610Z,91.50
2018-03-21T00:47:41.741Z,91.70
2018-03-21T00:50:10.857Z,91.80
2018-03-21T00:52:38.990Z,91.70
2018-03-21T00:55:07.203Z,91.70
2018-03-21T00:57:35.329Z,91.80
2018-03-21T01:00:03.480Z,91.90
2018-03-21T01:02:31.621Z,92.00
2018-03-21T01:04:59.861Z,92.00
2018-03-21T01:07:28.068Z,92.00
2018-03-21T01:09:56.991Z,92.30
2018-03-21T01:12:25.151Z,92.30
2018-03-21T01:14:53.368Z,92.20
2018-03-21T01:17:21.500Z,92.30
2018-03-21T01:19:49.673Z,92.20
2018-03-21T01:22:17.926Z,92.20
2018-03-21T01:24:46.079Z,92.20
2018-03-21T01:27:14.996Z,92.30
2018-03-21T01:29:43.164Z,91.90
2018-03-21T01:32:12.094Z,92.10
2018-03-21T01:34:40.341Z,92.10
2018-03-21T01:37:08.453Z,91.90
2018-03-21T01:39:37.444Z,91.90
2018-03-21T01:42:05.589Z,91.90
2018-03-21T01:44:33.768Z,92.00
2018-03-21T01:47:01.907Z,92.20
2018-03-21T01:49:30.036Z,92.80
2018-03-21T01:51:58.204Z,93.00
2018-03-21T01:54:26.449Z,92.90
2018-03-21T01:56:54.755Z,92.90
2018-03-21T01:59:23.656Z,93.20
2018-03-21T02:01:52.574Z,93.50
2018-03-21T02:04:21.494Z,93.30
2018-03-21T02:06:49.715Z,93.30
2018-03-21T02:09:17.883Z,93.50
2018-03-21T02:11:46.576Z,93.60
2018-03-21T02:14:15.369Z,93.90
2018-03-21T02:16:44.125Z,93.90
2018-03-21T02:19:13.552Z,93.80
2018-03-21T02:21:42.536Z,94.00
2018-03-21T02:24:10.690Z,94.00
2018-03-21T02:26:38.905Z,93.90
2018-03-21T02:29:07.045Z,93.70
2018-03-21T02:31:35.202Z,93.70
2018-03-21T02:34:04.116Z,94.10
2018-03-21T02:36:32.304Z,93.80
2018-03-21T02:39:00.593Z,93.80
2018-03-21T02:41:29.508Z,93.80
2018-03-21T02:43:57.733Z,93.80
2018-03-21T02:46:25.914Z,93.90
2018-03-21T02:48:54.156Z,93.90
2018-03-21T02:51:22.414Z,94.10
2018-03-21T02:53:50.588Z,94.20
2018-03-21T02:56:18.714Z,94.10
2018-03-21T02:58:47.704Z,94.10
2018-03-21T03:01:15.809Z,94.00
2018-03-21T03:03:44.748Z,93.90
2018-03-21T03:06:12.924Z,93.90
2018-03-21T03:08:41.125Z,93.90
2018-03-21T03:11:09.269Z,93.70
2018-03-21T03:13:38.250Z,93.80
2018-03-21T03:16:06.394Z,93.80
2018-03-21T03:18:34.622Z,93.80
2018-03-21T03:21:02.837Z,93.70
2018-03-21T03:23:31.758Z,94.00
2018-03-21T03:25:59.889Z,94.00
2018-03-21T03:28:28.041Z,94.10
2018-03-21T03:30:56.259Z,94.00
2018-03-21T03:33:24.402Z,94.20
2018-03-21T03:35:52.582Z,94.40
2018-03-21T03:38:21.480Z,94.70
2018-03-21T03:40:50.463Z,94.60
2018-03-21T03:43:18.613Z,94.50
2018-03-21T03:45:46.829Z,94.50
2018-03-21T03:48:14.973Z,94.50
2018-03-21T03:50:43.470Z,94.70
2018-03-21T03:53:11.634Z,95.30
2018-03-21T03:55:39.846Z,95.00
2018-03-21T03:58:08.015Z,94.90
2018-03-21T04:00:36.144Z,94.90
2018-03-21T04:03:04.416Z,94.90
2018-03-21T04:05:32.557Z,94.80
2018-03-21T04:08:01.486Z,94.70
2018-03-21T04:10:29.734Z,94.70
2018-03-21T04:12:57.944Z,94.70
2018-03-21T04:15:26.100Z,94.70
2018-03-21T04:17:54.308Z,94.90
2018-03-21T04:20:23.282Z,94.60
2018-03-21T04:22:51.440Z,94.50
2018-03-21T04:25:19.610Z,94.60
2018-03-21T04:27:47.785Z,94.60
2018-03-21T04:30:15.937Z,94.50
2018-03-21T04:32:44.523Z,94.40
2018-03-21T04:35:12.713Z,94.40
2018-03-21T04:37:40.970Z,94.40
2018-03-21T04:40:09.089Z,94.40
2018-03-21T04:42:37.229Z,94.40
2018-03-21T04:45:05.410Z,94.50
2018-03-21T04:47:33.567Z,94.70
2018-03-21T04:50:02.550Z,95.00
2018-03-21T04:52:30.741Z,95.00
2018-03-21T04:55:00.466Z,94.70
2018-03-21T04:57:28.600Z,94.70
2018-03-21T04:59:56.729Z,94.60
2018-03-21T05:02:24.891Z,94.60
2018-03-21T05:04:53.041Z,94.70
2018-03-21T05:07:21.237Z,94.90
2018-03-21T05:09:49.501Z,94.90
2018-03-21T05:12:17.647Z,95.00
2018-03-21T05:14:45.916Z,95.10
2018-03-21T05:17:14.212Z,95.00
2018-03-21T05:19:42.366Z,94.90
2018-03-21T05:22:10.488Z,94.90
2018-03-21T05:24:38.627Z,94.90
2018-03-21T05:27:07.569Z,95.20
2018-03-21T05:29:35.697Z,95.20
2018-03-21T05:32:04.685Z,95.40
2018-03-21T05:34:32.892Z,95.40
2018-03-21T05:37:01.045Z,95.60
2018-03-21T05:39:29.191Z,95.80
2018-03-21T05:41:57.374Z,95.70
2018-03-21T05:44:25.481Z,95.70
2018-03-21T05:46:53.672Z,95.70
2018-03-21T05:49:22.649Z,95.60
2018-03-21T05:51:51.629Z,95.40
2018-03-21T05:54:19.753Z,95.40
2018-03-21T05:56:48.684Z,95.70
2018-03-21T05:59:17.040Z,95.70
2018-03-21T06:01:45.945Z,95.50
2018-03-21T06:04:14.122Z,95.40
2018-03-21T06:06:43.044Z,94.20
2018-03-21T06:09:11.276Z,94.10
2018-03-21T06:11:39.755Z,93.20
2018-03-21T06:14:07.876Z,92.40
2018-03-21T06:16:36.068Z,90.60
2018-03-21T06:19:04.220Z,88.90
2018-03-21T06:21:32.425Z,87.60
2018-03-21T06:24:00.608Z,83.80
2018-03-21T06:26:28.776Z,81.30
2018-03-21T06:28:56.883Z,81.70
2018-03-21T06:31:26.522Z,75.30
2018-03-21T06:33:54.632Z,75.10
2018-03-21T06:36:22.895Z,76.60
2018-03-21T06:38:50.995Z,71.70
2018-03-21T06:41:19.920Z,72.00
2018-03-21T06:43:48.020Z,71.90
2018-03-21T06:46:16.250Z,68.40
2018-03-21T06:48:44.420Z,66.40
2018-03-21T06:51:12.570Z,66.50
2018-03-21T06:53:40.713Z,67.30
2018-03-21T06:56:08.825Z,65.70
2018-03-21T06:58:36.959Z,64.70
2018-03-21T07:01:05.302Z,67.20
2018-03-21T07:03:33.452Z,65.50
2018-03-21T07:06:01.559Z,61.60
2018-03-21T07:08:29.705Z,62.20
2018-03-21T07:10:57.867Z,64.90
2018-03-21T07:13:25.958Z,65.30
2018-03-21T07:16:05.952Z,63.20
2018-03-21T07:18:34.148Z,62.00
2018-03-21T07:21:02.359Z,64.00
2018-03-21T07:23:30.498Z,62.00
2018-03-21T07:25:59.062Z,64.60
2018-03-21T07:28:27.290Z,62.40
2018-03-21T07:30:55.510Z,62.70
2018-03-21T07:33:24.488Z,67.80
2018-03-21T07:35:52.589Z,67.60
2018-03-21T07:38:21.566Z,68.40
2018-03-21T07:40:49.712Z,68.30
2018-03-21T07:43:18.290Z,68.90
2018-03-21T07:45:46.395Z,65.50
2018-03-21T07:48:14.557Z,69.60
2018-03-21T07:50:42.818Z,68.30
2018-03-21T07:53:10.965Z,65.10
2018-03-21T07:55:39.152Z,66.40
2018-03-21T07:58:07.249Z,62.30
2018-03-21T08:00:35.303Z,58.30
2018-03-21T08:03:03.487Z,61.30
2018-03-21T08:05:31.656Z,63.80
2018-03-21T08:08:00.542Z,60.20
2018-03-21T08:10:28.678Z,60.20
2018-03-21T08:12:56.772Z,60.50
2018-03-21T08:15:25.275Z,59.90
2018-03-21T08:17:53.450Z,59.10
2018-03-21T08:20:21.624Z,59.10
2018-03-21T08:22:49.718Z,59.20
2018-03-21T08:25:18.122Z,60.60
2018-03-21T08:27:46.246Z,59.30
2018-03-21T08:30:15.210Z,59.30
2018-03-21T08:32:43.316Z,59.20
2018-03-21T08:35:11.443Z,57.50
2018-03-21T08:37:39.584Z,58.10
2018-03-21T08:40:07.737Z,59.80
2018-03-21T08:42:35.871Z,65.10
2018-03-21T08:45:04.079Z,59.90
2018-03-21T08:47:32.943Z,57.80
2018-03-21T08:50:01.048Z,57.70
2018-03-21T08:52:29.210Z,54.20
2018-03-21T08:54:57.332Z,54.80
2018-03-21T08:57:27.428Z,48.10
2018-03-21T08:59:56.140Z,48.10
2018-03-21T09:02:24.249Z,52.90
2018-03-21T09:04:53.157Z,59.70
2018-03-21T09:07:21.313Z,60.00
2018-03-21T09:09:49.460Z,55.00
2018-03-21T09:12:17.573Z,51.90
2018-03-21T09:14:45.734Z,51.60
2018-03-21T09:17:13.871Z,53.70
2018-03-21T09:19:41.990Z,55.10
2018-03-21T09:22:10.209Z,53.70
2018-03-21T09:24:38.343Z,55.60
2018-03-21T09:27:07.246Z,53.70
2018-03-21T09:29:36.236Z,52.70
2018-03-21T09:32:04.464Z,52.60
2018-03-21T09:34:32.557Z,52.70
2018-03-21T09:37:00.655Z,53.00
2018-03-21T09:39:28.783Z,51.00
2018-03-21T09:41:56.891Z,49.70
2018-03-21T09:44:25.840Z,55.40
2018-03-21T09:46:53.922Z,55.30
2018-03-21T09:49:22.025Z,51.50
2018-03-21T09:51:50.150Z,52.10
2018-03-21T09:54:19.695Z,48.30
2018-03-21T09:56:47.839Z,48.30
2018-03-21T09:59:16.735Z,53.30
2018-03-21T10:01:44.944Z,53.30
2018-03-21T10:04:13.798Z,55.50
2018-03-21T10:06:41.901Z,55.70
2018-03-21T10:09:10.104Z,57.20
2018-03-21T10:11:38.997Z,54.60
2018-03-21T10:14:07.894Z,58.30
2018-03-21T10:16:36.016Z,57.60
2018-03-21T10:19:04.224Z,57.00
2018-03-21T10:21:32.440Z,60.60
2018-03-21T10:24:00.537Z,55.90
2018-03-21T10:26:28.707Z,53.80
2018-03-21T10:28:56.891Z,52.00
2018-03-21T10:31:25.085Z,50.20
2018-03-21T10:33:53.196Z,52.40
2018-03-21T10:36:22.105Z,50.00
2018-03-21T10:38:50.314Z,50.00
2018-03-21T10:41:18.464Z,52.00
2018-03-21T10:43:46.574Z,49.10
2018-03-21T10:46:14.804Z,46.30
2018-03-21T10:48:43.006Z,44.50
2018-03-21T10:51:11.169Z,48.60
2018-03-21T10:53:39.273Z,45.60
2018-03-21T10:56:07.396Z,46.80
2018-03-21T10:58:36.364Z,52.30
2018-03-21T11:01:10.305Z,52.20
2018-03-21T11:03:38.415Z,49.70
2018-03-21T11:06:06.539Z,48.20
2018-03-21T11:08:34.605Z,45.50
2018-03-21T11:11:02.833Z,43.40
2018-03-21T11:13:30.989Z,43.00
2018-03-21T11:15:59.892Z,43.00
2018-03-21T11:18:28.048Z,42.90
2018-03-21T11:20:56.960Z,45.00
2018-03-21T11:23:25.497Z,44.80
2018-03-21T11:25:53.611Z,45.70
2018-03-21T11:28:21.739Z,44.80
2018-03-21T11:30:49.872Z,45.40
2018-03-21T11:33:18.090Z,41.40
2018-03-21T11:35:46.938Z,37.50
2018-03-21T11:38:15.089Z,37.40
2018-03-21T11:40:43.237Z,34.30
2018-03-21T11:43:11.418Z,36.30
2018-03-21T11:45:39.669Z,39.60
2018-03-21T11:48:07.790Z,40.70
2018-03-21T11:50:36.012Z,41.00
2018-03-21T11:53:04.215Z,37.50
2018-03-21T11:55:32.361Z,36.70
2018-03-21T11:58:01.266Z,36.00
2018-03-21T12:00:29.447Z,35.70
2018-03-21T12:02:57.525Z,36.60
2018-03-21T12:05:25.705Z,35.60
2018-03-21T12:07:53.901Z,36.50
2018-03-21T12:10:22.040Z,37.40
2018-03-21T12:12:50.135Z,35.90
2018-03-21T12:15:18.322Z,34.70
2018-03-21T12:17:46.516Z,35.10
2018-03-21T12:20:14.633Z,34.40
2018-03-21T12:22:43.180Z,33.50
2018-03-21T12:25:11.419Z,31.50
2018-03-21T12:27:39.524Z,33.60
2018-03-21T12:30:08.568Z,37.90
2018-03-21T12:32:36.668Z,37.70
2018-03-21T12:35:05.128Z,38.80
2018-03-21T12:37:34.389Z,36.70
2018-03-21T12:40:02.563Z,37.30
2018-03-21T12:42:30.673Z,40.60
2018-03-21T12:44:59.684Z,42.10
2018-03-21T12:47:28.624Z,36.80
2018-03-21T12:49:56.856Z,36.60
2018-03-21T12:52:25.040Z,34.60
2018-03-21T12:54:53.171Z,36.40
2018-03-21T12:57:21.363Z,36.50
2018-03-21T12:59:49.512Z,39.20
2018-03-21T13:02:17.654Z,38.40
2018-03-21T13:04:45.748Z,35.00
2018-03-21T13:07:13.870Z,35.30
2018-03-21T13:09:41.953Z,33.20
2018-03-21T13:12:10.115Z,31.80
2018-03-21T13:14:38.248Z,33.10
2018-03-21T13:17:07.112Z,36.70
2018-03-21T13:19:35.319Z,36.70
2018-03-21T13:22:04.207Z,30.30
2018-03-21T13:24:32.765Z,30.30
2018-03-21T13:27:00.890Z,32.60
2018-03-21T13:29:29.829Z,32.70
2018-03-21T13:31:58.746Z,30.00
2018-03-21T13:34:26.890Z,30.00
2018-03-21T13:36:55.065Z,29.20
2018-03-21T13:39:23.172Z,30.10
2018-03-21T13:41:52.140Z,32.70
2018-03-21T13:44:20.372Z,32.60
2018-03-21T13:46:48.672Z,31.50
2018-03-21T13:49:17.640Z,27.60
2018-03-21T13:51:45.876Z,27.50
2018-03-21T13:54:14.068Z,27.60
2018-03-21T13:56:42.402Z,27.30
2018-03-21T13:59:10.492Z,29.40
2018-03-21T14:01:39.463Z,30.50
2018-03-21T14:04:07.567Z,30.50
2018-03-21T14:06:35.649Z,30.70
2018-03-21T14:09:03.805Z,29.80
2018-03-21T14:11:31.904Z,31.70
2018-03-21T14:14:00.085Z,31.30
2018-03-21T14:16:28.243Z,33.20
2018-03-21T14:18:56.488Z,35.00
2018-03-21T14:21:24.617Z,36.40
2018-03-21T14:23:53.543Z,37.80
2018-03-21T14:26:21.640Z,37.80
2018-03-21T14:28:49.812Z,36.30
2018-03-21T14:31:17.929Z,35.60
2018-03-21T14:33:46.180Z,36.60
2018-03-21T14:36:14.307Z,35.50
2018-03-21T14:38:42.414Z,35.20
2018-03-21T14:41:11.503Z,36.60
2018-03-21T14:43:39.648Z,36.60
2018-03-21T14:46:07.844Z,37.80
2018-03-21T14:48:36.016Z,37.60
2018-03-21T14:51:04.096Z,36.60
2018-03-21T14:53:32.243Z,35.80
2018-03-21T14:56:00.355Z,36.90
2018-03-21T14:58:29.239Z,38.30
2018-03-21T15:00:57.372Z,38.30
2018-03-21T15:03:25.529Z,38.00
2018-03-21T15:05:54.453Z,38.20
2018-03-21T15:08:22.631Z,38.00
2018-03-21T15:10:50.795Z,38.80
2018-03-21T15:13:19.696Z,36.00
2018-03-21T15:15:47.876Z,35.40
2018-03-21T15:18:16.035Z,37.00
2018-03-21T15:20:44.159Z,36.00
2018-03-21T15:23:13.017Z,35.50
2018-03-21T15:25:41.260Z,35.50
2018-03-21T15:28:09.431Z,35.00
2018-03-21T15:30:38.394Z,37.00
2018-03-21T15:33:06.552Z,36.50
2018-03-21T15:35:34.664Z,35.50
2018-03-21T15:38:02.875Z,35.00
2018-03-21T15:40:30.986Z,34.20
2018-03-21T15:42:59.940Z,32.80
2018-03-21T15:45:28.086Z,32.80
2018-03-21T15:47:56.995Z,34.30
2018-03-21T15:50:25.181Z,34.30
2018-03-21T15:52:53.341Z,35.20
2018-03-21T15:55:21.456Z,34.30
2018-03-21T15:57:49.588Z,34.40
2018-03-21T16:00:17.718Z,34.00
2018-03-21T16:02:45.904Z,34.00
2018-03-21T16:05:14.805Z,32.80
2018-03-21T16:07:43.768Z,32.80
2018-03-21T16:10:11.979Z,32.70
2018-03-21T16:12:40.946Z,32.70
2018-03-21T16:15:09.150Z,32.70
2018-03-21T16:17:37.335Z,32.60
2018-03-21T16:20:05.476Z,32.60
2018-03-21T16:22:33.583Z,33.50
2018-03-21T16:25:01.781Z,34.00
2018-03-21T16:27:29.953Z,33.70
2018-03-21T16:29:58.077Z,32.90
2018-03-21T16:32:26.242Z,31.80
2018-03-21T16:34:54.365Z,32.50
2018-03-21T16:37:23.224Z,31.90
2018-03-21T16:39:51.441Z,31.80
2018-03-21T16:42:19.609Z,32.50
2018-03-21T16:44:47.797Z,30.40
2018-03-21T16:47:15.939Z,29.90
2018-03-21T16:49:44.165Z,30.50
2018-03-21T16:52:12.300Z,30.70
2018-03-21T16:54:40.440Z,30.00
2018-03-21T16:57:08.563Z,28.70
2018-03-21T16:59:37.538Z,29.90
2018-03-21T17:02:05.679Z,29.90
2018-03-21T17:04:33.852Z,30.00
2018-03-21T17:07:01.979Z,31.30
2018-03-21T17:09:30.187Z,31.10
2018-03-21T17:11:58.346Z,31.90
2018-03-21T17:14:26.458Z,32.20
2018-03-21T17:16:54.706Z,32.90
2018-03-21T17:19:22.869Z,33.70
2018-03-21T17:21:51.768Z,36.40
2018-03-21T17:24:19.906Z,36.40
2018-03-21T17:26:48.168Z,37.60
2018-03-21T17:29:16.327Z,38.60
2018-03-21T17:31:44.484Z,39.80
2018-03-21T17:34:12.630Z,41.50
2018-03-21T17:36:40.831Z,42.70
2018-03-21T17:39:08.928Z,44.00
2018-03-21T17:41:37.124Z,44.50
2018-03-21T17:44:05.269Z,45.90
2018-03-21T17:46:33.431Z,44.80
2018-03-21T17:49:02.292Z,45.50
2018-03-21T17:51:30.475Z,45.50
2018-03-21T17:53:58.981Z,44.70
2018-03-21T17:56:27.108Z,44.60
2018-03-21T17:58:55.242Z,46.10
2018-03-21T18:01:23.378Z,46.20
2018-03-21T18:03:51.505Z,46.20
2018-03-21T18:06:19.704Z,46.60
2018-03-21T18:08:47.834Z,47.10
2018-03-21T18:11:15.965Z,48.40
2018-03-21T18:13:44.114Z,48.40
2018-03-21T18:16:12.256Z,48.50
2018-03-21T18:18:40.380Z,48.20
2018-03-21T18:21:08.589Z,49.20
2018-03-21T18:23:36.786Z,49.90
2018-03-21T18:26:04.889Z,51.40
2018-03-21T18:28:32.982Z,53.70
2018-03-21T18:31:01.139Z,56.40
2018-03-21T18:33:29.526Z,57.70
2018-03-21T18:35:57.685Z,59.20
2018-03-21T18:38:25.884Z,61.90
2018-03-21T18:40:54.054Z,63.40
2018-03-21T18:43:22.266Z,64.70
2018-03-21T18:45:50.382Z,64.80
2018-03-21T18:48:18.484Z,63.20
2018-03-21T18:50:46.640Z,59.80
2018-03-21T18:53:14.766Z,60.60
2018-03-21T18:55:43.662Z,63.10
2018-03-21T18:58:11.790Z,63.00
2018-03-21T19:00:39.935Z,63.00
2018-03-21T19:03:08.089Z,63.00
2018-03-21T19:05:36.236Z,63.70
2018-03-21T19:08:04.527Z,64.40
2018-03-21T19:10:32.657Z,64.90
2018-03-21T19:13:00.898Z,65.50
2018-03-21T19:15:29.471Z,66.80
2018-03-21T19:17:58.361Z,67.60
2018-03-21T19:20:27.262Z,69.60
2018-03-21T19:22:56.188Z,69.60
2018-03-21T19:25:25.072Z,69.10
2018-03-21T19:27:53.219Z,69.00
2018-03-21T19:30:21.428Z,69.10
2018-03-21T19:32:49.569Z,70.00
2018-03-21T19:35:17.689Z,66.90
2018-03-21T19:37:46.074Z,65.70
2018-03-21T19:40:14.202Z,67.70
2018-03-21T19:42:43.069Z,69.40
2018-03-21T19:45:11.214Z,69.30
2018-03-21T19:47:39.367Z,69.90
2018-03-21T19:50:07.520Z,70.00
2018-03-21T19:52:35.658Z,70.20
2018-03-21T19:55:03.885Z,71.10
2018-03-21T19:57:32.017Z,71.80
2018-03-21T20:00:00.925Z,73.90
2018-03-21T20:02:29.812Z,74.90
2018-03-21T20:04:57.959Z,74.50
2018-03-21T20:07:26.160Z,75.20
2018-03-21T20:09:54.298Z,75.20
2018-03-21T20:12:23.200Z,75.70
2018-03-21T20:14:52.113Z,75.60
2018-03-21T20:17:20.238Z,75.60
2018-03-21T20:19:48.641Z,74.60
2018-03-21T20:22:16.859Z,73.80
2018-03-21T20:24:44.991Z,74.60
2018-03-21T20:27:13.099Z,75.50
2018-03-21T20:29:41.241Z,75.90
2018-03-21T20:32:09.391Z,75.80
2018-03-21T20:34:37.477Z,75.90
2018-03-21T20:37:06.397Z,76.90
2018-03-21T20:39:34.574Z,76.80
2018-03-21T20:42:03.485Z,78.70
2018-03-21T20:44:32.821Z,78.50
2018-03-21T20:47:00.960Z,78.60
2018-03-21T20:49:29.112Z,79.10
2018-03-21T20:51:57.280Z,79.40
2018-03-21T20:54:25.413Z,79.40
2018-03-21T20:56:53.538Z,78.50
2018-03-21T20:59:21.680Z,77.20
2018-03-21T21:01:50.030Z,77.50
2018-03-21T21:04:18.150Z,76.20
2018-03-21T21:06:46.314Z,73.80
2018-03-21T21:09:14.436Z,74.20
2018-03-21T21:11:42.660Z,75.00
2018-03-21T21:14:11.609Z,76.80
2018-03-21T21:16:39.736Z,76.80
2018-03-21T21:19:07.898Z,77.30
2018-03-21T21:21:36.041Z,77.60
2018-03-21T21:24:05.014Z,77.80
2018-03-21T21:26:33.892Z,78.50
2018-03-21T21:29:02.782Z,78.70
2018-03-21T21:31:30.937Z,78.70
2018-03-21T21:33:59.205Z,78.90
2018-03-21T21:36:27.318Z,80.00
2018-03-21T21:38:55.444Z,79.30
2018-03-21T21:41:23.629Z,78.60
2018-03-21T21:43:51.834Z,78.00
2018-03-21T21:46:19.977Z,77.90
2018-03-21T21:48:48.112Z,77.50
2018-03-21T21:51:17.084Z,76.70
2018-03-21T21:53:45.414Z,76.60
2018-03-21T21:56:14.356Z,77.10
2018-03-21T21:58:42.545Z,77.00
2018-03-21T22:01:10.786Z,77.20
2018-03-21T22:03:39.664Z,77.80
2018-03-21T22:06:07.852Z,77.80
2018-03-21T22:08:35.976Z,77.80
2018-03-21T22:11:04.076Z,78.00
2018-03-21T22:13:32.249Z,77.40
2018-03-21T22:16:00.441Z,76.70
2018-03-21T22:18:28.534Z,75.50
2018-03-21T22:20:56.754Z,75.30
2018-03-21T22:23:24.948Z,76.20
2018-03-21T22:25:53.118Z,76.40
2018-03-21T22:28:21.230Z,76.70
2018-03-21T22:30:49.387Z,77.50
2018-03-21T22:33:17.644Z,78.70
2018-03-21T22:35:45.850Z,78.30
2018-03-21T22:38:14.009Z,78.30
2018-03-21T22:40:42.197Z,78.20
2018-03-21T22:43:10.563Z,78.30
2018-03-21T22:45:38.742Z,78.90
2018-03-21T22:48:06.942Z,79.10
2018-03-21T22:50:35.047Z,79.40
2018-03-21T22:53:03.175Z,80.70
2018-03-21T22:55:31.380Z,80.80
2018-03-21T22:57:59.580Z,81.20
2018-03-21T23:00:27.752Z,81.40
2018-03-21T23:02:57.396Z,79.70
2018-03-21T23:05:26.319Z,78.50
2018-03-21T23:07:54.589Z,78.50
2018-03-21T23:10:22.711Z,77.80
2018-03-21T23:12:50.844Z,76.70
2018-03-21T23:15:18.963Z,77.00
2018-03-21T23:17:47.111Z,77.50
2018-03-21T23:20:15.217Z,77.00
2018-03-21T23:22:44.175Z,76.90
2018-03-21T23:25:12.325Z,76.80
2018-03-21T23:27:40.468Z,77.40
2018-03-21T23:30:08.623Z,77.10
2018-03-21T23:32:36.794Z,77.40
2018-03-21T23:35:04.923Z,77.80
2018-03-21T23:37:33.148Z,78.20
2018-03-21T23:40:02.058Z,79.50
2018-03-21T23:42:30.189Z,79.50
2018-03-21T23:44:58.384Z,80.40
2018-03-21T23:47:26.550Z,81.00
2018-03-21T23:49:54.707Z,81.10
2018-03-21T23:52:22.894Z,80.20
2018-03-21T23:54:51.057Z,80.00
2018-03-21T23:57:19.185Z,79.00
2018-03-21T23:59:47.453Z,77.90
